Time;durP1;ratioP1;P1;durP2;ratioP2;P2;SDS_P1;SDS_P2;PMS_P1;PMS_P2;Temp;Humidity;BMP_temperature;BMP_pressure;BME280_temperature;BME280_humidity;BME280_pressure;Samples;Min_cycle;Max_cycle;Signal;HPM_P1;HPM_P2
2023/04/26 00:01:20;;;;;;;11.82;3.75;;;3.70;99.90;;;;;;5075906;28;20445;-62
2023/04/26 00:03:47;;;;;;;5.50;2.70;;;3.80;99.90;;;;;;5093624;28;20052;-62
2023/04/26 00:06:15;;;;;;;5.68;2.30;;;3.80;99.90;;;;;;5093341;28;20093;-61
2023/04/26 00:08:42;;;;;;;7.50;2.33;;;3.80;99.90;;;;;;5093660;28;20130;-62
2023/04/26 00:11:10;;;;;;;6.80;2.30;;;3.80;99.90;;;;;;5075502;28;20048;-61
2023/04/26 00:13:37;;;;;;;5.72;2.78;;;3.80;99.90;;;;;;5092846;28;21077;-61
2023/04/26 00:16:04;;;;;;;5.28;1.85;;;3.70;99.90;;;;;;5093586;28;20048;-62
2023/04/26 00:18:31;;;;;;;7.57;2.40;;;3.80;99.90;;;;;;5092621;28;20561;-62
2023/04/26 00:20:58;;;;;;;8.00;2.72;;;3.90;99.90;;;;;;5093498;28;20048;-62
2023/04/26 00:23:25;;;;;;;4.53;2.25;;;4.00;99.90;;;;;;5093524;28;20101;-62
2023/04/26 00:25:52;;;;;;;7.43;2.38;;;3.90;99.90;;;;;;5092988;28;20055;-61
2023/04/26 00:28:20;;;;;;;7.38;2.95;;;4.00;99.90;;;;;;5093174;28;20048;-61
2023/04/26 00:30:47;;;;;;;7.70;2.50;;;4.00;99.90;;;;;;5093256;28;20128;-62
2023/04/26 00:33:14;;;;;;;5.03;2.20;;;4.00;99.90;;;;;;5090467;28;20040;-60
2023/04/26 00:35:42;;;;;;;5.93;2.38;;;4.00;99.90;;;;;;5092646;28;20491;-61
2023/04/26 00:38:09;;;;;;;4.22;2.03;;;3.90;99.90;;;;;;5093226;28;20071;-61
2023/04/26 00:40:35;;;;;;;7.22;2.33;;;3.90;99.90;;;;;;5074510;28;20048;-61
2023/04/26 00:43:03;;;;;;;10.90;2.35;;;3.90;99.90;;;;;;5091210;28;20349;-61
2023/04/26 00:45:31;;;;;;;6.22;2.47;;;3.80;99.90;;;;;;5093041;28;20450;-62
2023/04/26 00:48:00;;;;;;;8.13;2.72;;;3.70;99.90;;;;;;5074323;28;20048;-61
2023/04/26 00:50:27;;;;;;;7.13;2.08;;;3.70;99.90;;;;;;5090816;28;20453;-62
2023/04/26 00:52:55;;;;;;;6.05;2.15;;;3.60;99.90;;;;;;5092900;28;20090;-62
2023/04/26 00:55:22;;;;;;;7.55;2.60;;;3.70;99.90;;;;;;5074318;28;20446;-62
2023/04/26 00:57:49;;;;;;;4.50;2.47;;;3.60;99.90;;;;;;5092911;28;20040;-62
2023/04/26 01:00:16;;;;;;;8.18;2.70;;;3.70;99.90;;;;;;5092795;28;20454;-63
2023/04/26 01:02:44;;;;;;;4.35;2.38;;;3.70;99.90;;;;;;5073894;28;20097;-62
2023/04/26 01:05:11;;;;;;;6.63;2.85;;;3.70;99.90;;;;;;5074883;28;20066;-62
2023/04/26 01:07:38;;;;;;;5.28;2.55;;;3.80;99.90;;;;;;5092140;28;20048;-61
2023/04/26 01:10:08;;;;;;;7.13;2.40;;;3.80;99.90;;;;;;5092565;28;20101;-61
2023/04/26 01:12:35;;;;;;;9.23;2.50;;;3.70;99.90;;;;;;5072815;28;20055;-62
2023/04/26 01:15:03;;;;;;;7.53;2.80;;;3.60;99.90;;;;;;5091990;28;20048;-61
2023/04/26 01:17:30;;;;;;;4.55;2.35;;;3.60;99.90;;;;;;5092651;28;20090;-61
2023/04/26 01:19:58;;;;;;;6.43;2.40;;;3.50;99.90;;;;;;5074486;28;20090;-63
2023/04/26 01:22:27;;;;;;;6.38;3.15;;;3.40;99.90;;;;;;5074142;28;20083;-61
2023/04/26 01:24:56;;;;;;;8.15;2.47;;;3.40;99.90;;;;;;5092447;28;20044;-62
2023/04/26 01:27:23;;;;;;;10.70;2.90;;;3.30;99.90;;;;;;5092157;28;20048;-62
2023/04/26 01:29:50;;;;;;;7.72;3.17;;;3.30;99.90;;;;;;5073846;28;20048;-61
2023/04/26 01:32:17;;;;;;;7.43;2.30;;;3.20;99.90;;;;;;5092407;28;20048;-62
2023/04/26 01:34:44;;;;;;;4.68;2.65;;;3.20;99.90;;;;;;5074208;28;20036;-61
2023/04/26 01:37:11;;;;;;;6.95;2.60;;;3.20;99.90;;;;;;5073688;28;20060;-62
2023/04/26 01:39:38;;;;;;;9.65;3.22;;;3.20;99.90;;;;;;5092198;28;20052;-62
2023/04/26 01:42:06;;;;;;;8.55;2.65;;;3.20;99.90;;;;;;5092049;28;20070;-61
2023/04/26 01:44:33;;;;;;;6.53;2.88;;;3.20;99.90;;;;;;5073614;28;20048;-61
2023/04/26 01:47:00;;;;;;;11.82;3.70;;;3.20;99.90;;;;;;5074415;28;20388;-61
2023/04/26 01:49:27;;;;;;;7.00;2.60;;;3.20;99.90;;;;;;5096045;28;20511;-63
2023/04/26 01:51:54;;;;;;;10.65;2.95;;;3.30;99.90;;;;;;5077963;28;20094;-62
2023/04/26 01:54:21;;;;;;;6.97;2.75;;;3.20;99.90;;;;;;5077952;28;20052;-61
2023/04/26 01:56:48;;;;;;;9.63;2.97;;;3.30;99.90;;;;;;5077680;28;20499;-61
2023/04/26 01:59:16;;;;;;;11.88;3.15;;;3.40;99.90;;;;;;5067895;28;20109;-62
2023/04/26 02:01:43;;;;;;;6.75;2.22;;;3.30;99.90;;;;;;5091395;28;20044;-62
2023/04/26 02:04:10;;;;;;;8.85;2.90;;;3.30;99.90;;;;;;5091892;28;20086;-62
2023/04/26 02:06:37;;;;;;;9.43;2.72;;;3.30;99.90;;;;;;5092322;28;20172;-62
2023/04/26 02:09:04;;;;;;;8.00;2.83;;;3.30;99.90;;;;;;5075489;28;20088;-61
2023/04/26 02:11:31;;;;;;;9.65;3.08;;;3.50;99.90;;;;;;5070568;28;20052;-61
2023/04/26 02:13:58;;;;;;;8.40;2.28;;;3.40;99.90;;;;;;5076808;28;20135;-62
2023/04/26 02:16:27;;;;;;;9.15;2.90;;;3.40;99.90;;;;;;5073226;28;20063;-62
2023/04/26 02:18:54;;;;;;;7.43;3.15;;;3.50;99.90;;;;;;5093269;28;20043;-61
2023/04/26 02:21:21;;;;;;;4.78;2.35;;;3.50;99.90;;;;;;5074949;28;20052;-62
2023/04/26 02:23:48;;;;;;;10.23;2.55;;;3.40;99.90;;;;;;5094281;28;20464;-62
2023/04/26 02:26:15;;;;;;;6.80;2.97;;;3.40;99.90;;;;;;5075610;28;20063;-62
2023/04/26 02:28:42;;;;;;;6.32;2.40;;;3.30;99.90;;;;;;5094082;28;20089;-62
2023/04/26 02:31:09;;;;;;;5.45;2.47;;;3.30;99.90;;;;;;5090733;28;20077;-61
2023/04/26 02:33:38;;;;;;;7.78;2.28;;;3.20;99.90;;;;;;5091854;28;20554;-61
2023/04/26 02:36:06;;;;;;;7.45;2.50;;;3.20;99.90;;;;;;5074891;28;20110;-62
2023/04/26 02:38:34;;;;;;;10.55;2.60;;;3.20;99.90;;;;;;5094180;28;20545;-61
2023/04/26 02:41:02;;;;;;;6.72;2.83;;;3.20;99.90;;;;;;5074336;28;20076;-62
2023/04/26 02:43:29;;;;;;;5.13;2.47;;;3.20;99.90;;;;;;5094441;28;20039;-62
2023/04/26 02:45:57;;;;;;;8.02;3.63;;;3.20;99.90;;;;;;5092960;28;20481;-62
2023/04/26 02:48:24;;;;;;;5.82;2.42;;;3.30;99.90;;;;;;5074706;28;20052;-61
2023/04/26 02:50:52;;;;;;;13.15;2.28;;;3.20;99.90;;;;;;5076043;28;20081;-62
2023/04/26 02:53:19;;;;;;;9.75;2.40;;;3.20;99.90;;;;;;5073995;28;20128;-62
2023/04/26 02:55:46;;;;;;;8.73;2.08;;;3.20;99.90;;;;;;5093917;28;20083;-62
